sensor_id;sensor_type;location;lat;lon;timestamp;P1;durP1;ratioP1;P2;durP2;ratioP2
253;SDS011;590;48.772;8.846;2023-06-22T00:00:33;9.60;;;9.10;;
253;SDS011;590;48.772;8.846;2023-06-22T00:03:01;9.93;;;9.43;;
253;SDS011;590;48.772;8.846;2023-06-22T00:05:31;9.53;;;9.03;;
253;SDS011;590;48.772;8.846;2023-06-22T00:08:01;9.90;;;9.40;;
253;SDS011;590;48.772;8.846;2023-06-22T00:10:31;9.10;;;8.60;;
253;SDS011;590;48.772;8.846;2023-06-22T00:12:59;9.97;;;9.47;;
253;SDS011;590;48.772;8.846;2023-06-22T00:15:27;10.20;;;9.10;;
253;SDS011;590;48.772;8.846;2023-06-22T00:17:55;9.90;;;9.40;;
253;SDS011;590;48.772;8.846;2023-06-22T00:20:25;10.27;;;9.00;;
253;SDS011;590;48.772;8.846;2023-06-22T00:22:56;10.30;;;9.30;;
253;SDS011;590;48.772;8.846;2023-06-22T00:25:25;9.40;;;8.90;;
253;SDS011;590;48.772;8.846;2023-06-22T00:27:53;10.80;;;9.67;;
253;SDS011;590;48.772;8.846;2023-06-22T00:30:21;9.40;;;8.90;;
253;SDS011;590;48.772;8.846;2023-06-22T00:32:49;9.10;;;8.60;;
253;SDS011;590;48.772;8.846;2023-06-22T00:35:17;9.63;;;9.07;;
253;SDS011;590;48.772;8.846;2023-06-22T00:37:45;10.40;;;9.90;;
253;SDS011;590;48.772;8.846;2023-06-22T00:40:14;9.77;;;9.27;;
253;SDS011;590;48.772;8.846;2023-06-22T00:42:48;9.37;;;8.87;;
253;SDS011;590;48.772;8.846;2023-06-22T00:45:16;9.50;;;9.00;;
253;SDS011;590;48.772;8.846;2023-06-22T00:47:44;8.80;;;8.30;;
253;SDS011;590;48.772;8.846;2023-06-22T00:50:13;10.13;;;9.63;;
253;SDS011;590;48.772;8.846;2023-06-22T00:52:48;9.27;;;8.77;;
253;SDS011;590;48.772;8.846;2023-06-22T00:55:19;9.40;;;8.90;;
253;SDS011;590;48.772;8.846;2023-06-22T00:57:49;11.57;;;10.97;;
253;SDS011;590;48.772;8.846;2023-06-22T01:00:22;11.60;;;11.00;;
253;SDS011;590;48.772;8.846;2023-06-22T01:02:51;11.77;;;10.10;;
253;SDS011;590;48.772;8.846;2023-06-22T01:05:21;11.00;;;10.40;;
253;SDS011;590;48.772;8.846;2023-06-22T01:07:53;11.87;;;9.97;;
253;SDS011;590;48.772;8.846;2023-06-22T01:10:34;11.80;;;11.20;;
253;SDS011;590;48.772;8.846;2023-06-22T01:13:09;12.23;;;11.63;;
253;SDS011;590;48.772;8.846;2023-06-22T01:15:45;12.20;;;11.60;;
253;SDS011;590;48.772;8.846;2023-06-22T01:18:17;12.50;;;11.87;;
253;SDS011;590;48.772;8.846;2023-06-22T01:20:46;11.67;;;11.07;;
253;SDS011;590;48.772;8.846;2023-06-22T01:23:17;12.90;;;12.20;;
253;SDS011;590;48.772;8.846;2023-06-22T01:25:57;10.40;;;9.90;;
253;SDS011;590;48.772;8.846;2023-06-22T01:28:42;13.23;;;12.33;;
253;SDS011;590;48.772;8.846;2023-06-22T01:31:13;11.70;;;11.10;;
253;SDS011;590;48.772;8.846;2023-06-22T01:33:46;10.83;;;10.23;;
253;SDS011;590;48.772;8.846;2023-06-22T01:36:17;12.33;;;10.90;;
253;SDS011;590;48.772;8.846;2023-06-22T01:38:46;12.50;;;10.33;;
253;SDS011;590;48.772;8.846;2023-06-22T01:41:15;13.87;;;11.27;;
253;SDS011;590;48.772;8.846;2023-06-22T01:43:46;15.17;;;10.40;;
253;SDS011;590;48.772;8.846;2023-06-22T01:46:16;16.67;;;10.57;;
253;SDS011;590;48.772;8.846;2023-06-22T01:48:46;12.20;;;10.10;;
253;SDS011;590;48.772;8.846;2023-06-22T01:51:14;9.90;;;9.33;;
253;SDS011;590;48.772;8.846;2023-06-22T01:53:43;11.13;;;9.67;;
253;SDS011;590;48.772;8.846;2023-06-22T01:56:11;11.90;;;10.70;;
253;SDS011;590;48.772;8.846;2023-06-22T01:58:40;10.90;;;10.30;;
253;SDS011;590;48.772;8.846;2023-06-22T02:01:16;10.67;;;10.03;;
253;SDS011;590;48.772;8.846;2023-06-22T02:03:52;10.60;;;10.00;;
253;SDS011;590;48.772;8.846;2023-06-22T02:06:27;10.57;;;10.00;;
253;SDS011;590;48.772;8.846;2023-06-22T02:09:02;10.67;;;10.10;;
253;SDS011;590;48.772;8.846;2023-06-22T02:11:33;11.23;;;10.63;;
253;SDS011;590;48.772;8.846;2023-06-22T02:14:05;10.93;;;10.33;;
253;SDS011;590;48.772;8.846;2023-06-22T02:16:34;9.77;;;9.27;;
253;SDS011;590;48.772;8.846;2023-06-22T02:19:04;9.53;;;9.03;;
253;SDS011;590;48.772;8.846;2023-06-22T02:21:32;14.77;;;10.60;;
253;SDS011;590;48.772;8.846;2023-06-22T02:24:00;16.20;;;9.53;;
253;SDS011;590;48.772;8.846;2023-06-22T02:26:29;13.13;;;9.90;;
253;SDS011;590;48.772;8.846;2023-06-22T02:28:58;11.67;;;10.67;;
253;SDS011;590;48.772;8.846;2023-06-22T02:31:27;11.97;;;9.83;;
253;SDS011;590;48.772;8.846;2023-06-22T02:33:57;12.60;;;10.50;;
253;SDS011;590;48.772;8.846;2023-06-22T02:36:25;12.80;;;11.00;;
253;SDS011;590;48.772;8.846;2023-06-22T02:38:56;11.23;;;9.90;;
253;SDS011;590;48.772;8.846;2023-06-22T02:41:28;10.60;;;9.83;;
253;SDS011;590;48.772;8.846;2023-06-22T02:43:56;10.20;;;9.70;;
253;SDS011;590;48.772;8.846;2023-06-22T02:46:24;11.37;;;10.77;;
253;SDS011;590;48.772;8.846;2023-06-22T02:48:53;10.10;;;9.60;;
253;SDS011;590;48.772;8.846;2023-06-22T02:51:21;10.27;;;9.80;;
253;SDS011;590;48.772;8.846;2023-06-22T02:53:49;12.70;;;10.10;;
253;SDS011;590;48.772;8.846;2023-06-22T02:56:18;10.43;;;9.90;;
253;SDS011;590;48.772;8.846;2023-06-22T02:58:51;10.00;;;9.50;;
253;SDS011;590;48.772;8.846;2023-06-22T03:01:19;10.57;;;10.00;;
253;SDS011;590;48.772;8.846;2023-06-22T03:03:50;13.30;;;11.40;;
253;SDS011;590;48.772;8.846;2023-06-22T03:06:20;15.00;;;10.60;;
253;SDS011;590;48.772;8.846;2023-06-22T03:08:50;18.37;;;10.70;;
253;SDS011;590;48.772;8.846;2023-06-22T03:11:19;10.80;;;9.60;;
253;SDS011;590;48.772;8.846;2023-06-22T03:13:47;13.47;;;10.40;;
253;SDS011;590;48.772;8.846;2023-06-22T03:16:15;10.87;;;9.40;;
253;SDS011;590;48.772;8.846;2023-06-22T03:18:43;11.13;;;10.33;;
253;SDS011;590;48.772;8.846;2023-06-22T03:21:11;12.93;;;9.63;;
253;SDS011;590;48.772;8.846;2023-06-22T03:23:40;10.37;;;9.80;;
253;SDS011;590;48.772;8.846;2023-06-22T03:26:08;10.90;;;10.30;;
253;SDS011;590;48.772;8.846;2023-06-22T03:28:37;12.23;;;11.07;;
253;SDS011;590;48.772;8.846;2023-06-22T03:31:05;10.70;;;10.10;;
253;SDS011;590;48.772;8.846;2023-06-22T03:33:34;11.00;;;10.40;;
253;SDS011;590;48.772;8.846;2023-06-22T03:36:02;11.17;;;10.57;;
253;SDS011;590;48.772;8.846;2023-06-22T03:38:30;12.37;;;10.43;;
253;SDS011;590;48.772;8.846;2023-06-22T03:41:00;10.07;;;9.60;;
253;SDS011;590;48.772;8.846;2023-06-22T03:43:28;11.70;;;9.57;;
253;SDS011;590;48.772;8.846;2023-06-22T03:45:56;13.10;;;9.90;;
253;SDS011;590;48.772;8.846;2023-06-22T03:48:24;17.77;;;10.87;;
253;SDS011;590;48.772;8.846;2023-06-22T03:50:52;10.60;;;9.97;;
253;SDS011;590;48.772;8.846;2023-06-22T03:53:20;12.03;;;10.20;;
253;SDS011;590;48.772;8.846;2023-06-22T03:55:48;11.40;;;10.80;;
253;SDS011;590;48.772;8.846;2023-06-22T03:58:19;11.17;;;10.57;;
253;SDS011;590;48.772;8.846;2023-06-22T04:00:48;15.03;;;10.50;;
253;SDS011;590;48.772;8.846;2023-06-22T04:03:17;10.80;;;10.20;;
253;SDS011;590;48.772;8.846;2023-06-22T04:05:46;10.80;;;10.20;;
253;SDS011;590;48.772;8.846;2023-06-22T04:08:14;10.37;;;9.87;;
253;SDS011;590;48.772;8.846;2023-06-22T04:10:43;9.97;;;9.47;;
253;SDS011;590;48.772;8.846;2023-06-22T04:13:11;11.10;;;10.43;;
253;SDS011;590;48.772;8.846;2023-06-22T04:15:40;12.00;;;10.77;;
253;SDS011;590;48.772;8.846;2023-06-22T04:18:08;10.27;;;9.73;;
253;SDS011;590;48.772;8.846;2023-06-22T04:20:36;9.60;;;9.10;;
253;SDS011;590;48.772;8.846;2023-06-22T04:23:05;10.23;;;9.00;;
253;SDS011;590;48.772;8.846;2023-06-22T04:25:33;14.53;;;9.00;;
253;SDS011;590;48.772;8.846;2023-06-22T04:28:01;10.50;;;8.80;;
253;SDS011;590;48.772;8.846;2023-06-22T04:30:32;11.57;;;8.60;;
253;SDS011;590;48.772;8.846;2023-06-22T04:33:01;9.67;;;9.13;;
253;SDS011;590;48.772;8.846;2023-06-22T04:35:29;10.80;;;8.43;;
253;SDS011;590;48.772;8.846;2023-06-22T04:37:58;8.80;;;8.33;;
253;SDS011;590;48.772;8.846;2023-06-22T04:40:26;9.80;;;9.30;;
253;SDS011;590;48.772;8.846;2023-06-22T04:42:54;9.23;;;8.63;;
253;SDS011;590;48.772;8.846;2023-06-22T04:45:22;10.60;;;10.00;;
253;SDS011;590;48.772;8.846;2023-06-22T04:47:50;11.77;;;9.37;;
253;SDS011;590;48.772;8.846;2023-06-22T04:50:20;9.90;;;9.40;;
253;SDS011;590;48.772;8.846;2023-06-22T04:52:50;9.90;;;9.40;;
253;SDS011;590;48.772;8.846;2023-06-22T04:55:19;10.80;;;10.20;;
253;SDS011;590;48.772;8.846;2023-06-22T04:57:48;9.83;;;9.33;;
253;SDS011;590;48.772;8.846;2023-06-22T05:00:16;9.40;;;8.93;;
253;SDS011;590;48.772;8.846;2023-06-22T05:02:46;10.17;;;9.67;;
253;SDS011;590;48.772;8.846;2023-06-22T05:05:14;9.17;;;8.67;;
253;SDS011;590;48.772;8.846;2023-06-22T05:07:44;9.93;;;9.43;;
253;SDS011;590;48.772;8.846;2023-06-22T05:10:17;10.23;;;9.70;;
253;SDS011;590;48.772;8.846;2023-06-22T05:12:45;9.50;;;9.00;;
253;SDS011;590;48.772;8.846;2023-06-22T05:15:14;14.63;;;10.17;;
253;SDS011;590;48.772;8.846;2023-06-22T05:17:42;9.57;;;9.07;;
253;SDS011;590;48.772;8.846;2023-06-22T05:20:12;10.27;;;9.30;;
253;SDS011;590;48.772;8.846;2023-06-22T05:22:45;9.60;;;9.13;;
253;SDS011;590;48.772;8.846;2023-06-22T05:25:13;12.17;;;9.30;;
253;SDS011;590;48.772;8.846;2023-06-22T05:27:41;9.93;;;9.43;;
253;SDS011;590;48.772;8.846;2023-06-22T05:30:10;10.90;;;9.60;;
253;SDS011;590;48.772;8.846;2023-06-22T05:32:38;11.40;;;10.10;;
253;SDS011;590;48.772;8.846;2023-06-22T05:35:07;9.97;;;9.47;;
253;SDS011;590;48.772;8.846;2023-06-22T05:37:35;10.00;;;9.50;;
253;SDS011;590;48.772;8.846;2023-06-22T05:40:05;10.97;;;10.37;;
253;SDS011;590;48.772;8.846;2023-06-22T05:42:35;10.93;;;10.33;;
253;SDS011;590;48.772;8.846;2023-06-22T05:45:04;10.47;;;9.93;;
253;SDS011;590;48.772;8.846;2023-06-22T05:47:33;10.30;;;9.80;;
253;SDS011;590;48.772;8.846;2023-06-22T05:50:01;12.67;;;10.40;;
253;SDS011;590;48.772;8.846;2023-06-22T05:52:32;10.73;;;10.13;;
253;SDS011;590;48.772;8.846;2023-06-22T05:55:01;9.80;;;9.30;;
253;SDS011;590;48.772;8.846;2023-06-22T05:57:31;10.13;;;9.63;;
253;SDS011;590;48.772;8.846;2023-06-22T05:59:59;9.87;;;9.37;;
253;SDS011;590;48.772;8.846;2023-06-22T06:02:27;9.30;;;8.57;;
253;SDS011;590;48.772;8.846;2023-06-22T06:04:55;11.20;;;10.60;;
253;SDS011;590;48.772;8.846;2023-06-22T06:07:23;9.97;;;9.47;;
253;SDS011;590;48.772;8.846;2023-06-22T06:09:52;9.97;;;9.47;;
253;SDS011;590;48.772;8.846;2023-06-22T06:12:20;9.57;;;9.07;;
253;SDS011;590;48.772;8.846;2023-06-22T06:14:49;9.57;;;9.07;;
253;SDS011;590;48.772;8.846;2023-06-22T06:17:17;9.80;;;9.30;;
253;SDS011;590;48.772;8.846;2023-06-22T06:19:45;9.13;;;8.63;;
253;SDS011;590;48.772;8.846;2023-06-22T06:22:13;9.50;;;9.00;;
253;SDS011;590;48.772;8.846;2023-06-22T06:24:41;9.43;;;8.93;;
253;SDS011;590;48.772;8.846;2023-06-22T06:27:09;9.80;;;9.30;;
253;SDS011;590;48.772;8.846;2023-06-22T06:29:37;9.60;;;9.10;;
253;SDS011;590;48.772;8.846;2023-06-22T06:32:08;9.40;;;8.90;;
253;SDS011;590;48.772;8.846;2023-06-22T06:34:36;8.10;;;7.70;;
253;SDS011;590;48.772;8.846;2023-06-22T06:37:04;7.60;;;7.20;;
253;SDS011;590;48.772;8.846;2023-06-22T06:39:32;9.60;;;8.10;;
253;SDS011;590;48.772;8.846;2023-06-22T06:42:00;8.23;;;7.83;;
253;SDS011;590;48.772;8.846;2023-06-22T06:44:28;8.57;;;8.07;;
253;SDS011;590;48.772;8.846;2023-06-22T06:46:56;7.53;;;7.13;;
253;SDS011;590;48.772;8.846;2023-06-22T06:49:25;7.53;;;7.13;;
253;SDS011;590;48.772;8.846;2023-06-22T06:51:53;7.90;;;7.53;;
253;SDS011;590;48.772;8.846;2023-06-22T06:54:22;8.23;;;7.80;;
253;SDS011;590;48.772;8.846;2023-06-22T06:56:50;7.10;;;6.60;;
253;SDS011;590;48.772;8.846;2023-06-22T06:59:18;6.20;;;5.87;;
253;SDS011;590;48.772;8.846;2023-06-22T07:01:46;6.73;;;6.10;;
253;SDS011;590;48.772;8.846;2023-06-22T07:04:15;5.80;;;5.50;;
253;SDS011;590;48.772;8.846;2023-06-22T07:06:44;6.97;;;5.60;;
253;SDS011;590;48.772;8.846;2023-06-22T07:09:12;6.00;;;5.70;;
253;SDS011;590;48.772;8.846;2023-06-22T07:11:40;6.00;;;5.70;;
253;SDS011;590;48.772;8.846;2023-06-22T07:14:08;6.33;;;6.00;;
253;SDS011;590;48.772;8.846;2023-06-22T07:16:36;5.90;;;5.60;;
253;SDS011;590;48.772;8.846;2023-06-22T07:19:04;6.07;;;5.43;;
253;SDS011;590;48.772;8.846;2023-06-22T07:21:35;5.40;;;5.10;;
253;SDS011;590;48.772;8.846;2023-06-22T07:24:05;7.67;;;4.97;;
253;SDS011;590;48.772;8.846;2023-06-22T07:26:33;5.43;;;5.10;;
253;SDS011;590;48.772;8.846;2023-06-22T07:29:01;6.43;;;6.03;;
253;SDS011;590;48.772;8.846;2023-06-22T07:31:30;6.93;;;6.40;;
253;SDS011;590;48.772;8.846;2023-06-22T07:33:58;9.20;;;4.80;;
253;SDS011;590;48.772;8.846;2023-06-22T07:36:26;7.97;;;5.70;;
253;SDS011;590;48.772;8.846;2023-06-22T07:38:56;7.50;;;6.03;;
253;SDS011;590;48.772;8.846;2023-06-22T07:41:25;7.13;;;5.90;;
253;SDS011;590;48.772;8.846;2023-06-22T07:43:53;6.43;;;5.13;;
253;SDS011;590;48.772;8.846;2023-06-22T07:46:21;6.90;;;5.60;;
253;SDS011;590;48.772;8.846;2023-06-22T07:48:49;7.03;;;5.00;;
253;SDS011;590;48.772;8.846;2023-06-22T07:51:21;4.97;;;4.73;;
253;SDS011;590;48.772;8.846;2023-06-22T07:53:49;6.20;;;5.50;;
253;SDS011;590;48.772;8.846;2023-06-22T07:56:17;7.60;;;5.80;;
253;SDS011;590;48.772;8.846;2023-06-22T07:58:48;6.37;;;5.47;;
253;SDS011;590;48.772;8.846;2023-06-22T08:01:16;5.23;;;4.93;;
253;SDS011;590;48.772;8.846;2023-06-22T08:03:47;5.30;;;5.00;;
253;SDS011;590;48.772;8.846;2023-06-22T08:06:15;5.20;;;4.93;;
253;SDS011;590;48.772;8.846;2023-06-22T08:08:43;6.37;;;6.00;;
253;SDS011;590;48.772;8.846;2023-06-22T08:11:14;6.60;;;5.93;;
253;SDS011;590;48.772;8.846;2023-06-22T08:13:42;5.63;;;5.33;;
253;SDS011;590;48.772;8.846;2023-06-22T08:16:12;8.87;;;7.00;;
253;SDS011;590;48.772;8.846;2023-06-22T08:18:40;6.93;;;6.20;;
253;SDS011;590;48.772;8.846;2023-06-22T08:21:08;5.70;;;5.40;;
253;SDS011;590;48.772;8.846;2023-06-22T08:23:37;5.70;;;5.23;;
253;SDS011;590;48.772;8.846;2023-06-22T08:26:05;7.57;;;6.13;;
253;SDS011;590;48.772;8.846;2023-06-22T08:28:33;5.97;;;5.67;;
253;SDS011;590;48.772;8.846;2023-06-22T08:31:01;7.07;;;6.67;;
253;SDS011;590;48.772;8.846;2023-06-22T08:33:31;6.47;;;6.07;;
253;SDS011;590;48.772;8.846;2023-06-22T08:35:59;6.40;;;6.03;;
253;SDS011;590;48.772;8.846;2023-06-22T08:38:27;6.07;;;5.70;;
253;SDS011;590;48.772;8.846;2023-06-22T08:40:55;6.80;;;6.00;;
253;SDS011;590;48.772;8.846;2023-06-22T08:43:23;5.87;;;5.57;;
253;SDS011;590;48.772;8.846;2023-06-22T08:45:51;5.90;;;5.60;;
253;SDS011;590;48.772;8.846;2023-06-22T08:48:19;7.43;;;5.63;;
253;SDS011;590;48.772;8.846;2023-06-22T08:50:48;6.67;;;6.27;;
253;SDS011;590;48.772;8.846;2023-06-22T08:53:16;5.43;;;5.13;;
253;SDS011;590;48.772;8.846;2023-06-22T08:55:44;7.00;;;5.73;;
253;SDS011;590;48.772;8.846;2023-06-22T08:58:12;7.10;;;6.70;;
253;SDS011;590;48.772;8.846;2023-06-22T09:00:40;5.97;;;5.53;;
253;SDS011;590;48.772;8.846;2023-06-22T09:03:08;8.70;;;6.27;;
253;SDS011;590;48.772;8.846;2023-06-22T09:05:36;6.60;;;5.97;;
253;SDS011;590;48.772;8.846;2023-06-22T09:08:06;6.27;;;5.93;;
253;SDS011;590;48.772;8.846;2023-06-22T09:10:34;6.30;;;5.80;;
253;SDS011;590;48.772;8.846;2023-06-22T09:13:02;5.80;;;5.50;;
253;SDS011;590;48.772;8.846;2023-06-22T09:15:30;6.23;;;5.90;;
253;SDS011;590;48.772;8.846;2023-06-22T09:17:58;6.60;;;6.20;;
253;SDS011;590;48.772;8.846;2023-06-22T09:20:27;7.10;;;6.03;;
253;SDS011;590;48.772;8.846;2023-06-22T09:22:55;7.67;;;6.43;;
253;SDS011;590;48.772;8.846;2023-06-22T09:25:24;8.43;;;6.73;;
253;SDS011;590;48.772;8.846;2023-06-22T09:27:53;6.13;;;5.87;;
253;SDS011;590;48.772;8.846;2023-06-22T09:30:21;9.87;;;6.77;;
253;SDS011;590;48.772;8.846;2023-06-22T09:32:49;8.50;;;6.30;;
253;SDS011;590;48.772;8.846;2023-06-22T09:35:18;10.17;;;7.20;;
253;SDS011;590;48.772;8.846;2023-06-22T09:37:46;6.93;;;6.43;;
253;SDS011;590;48.772;8.846;2023-06-22T09:40:14;7.20;;;6.80;;
253;SDS011;590;48.772;8.846;2023-06-22T09:42:44;8.37;;;7.43;;
253;SDS011;590;48.772;8.846;2023-06-22T09:45:12;8.37;;;6.80;;
253;SDS011;590;48.772;8.846;2023-06-22T09:47:40;6.20;;;5.80;;
253;SDS011;590;48.772;8.846;2023-06-22T09:50:09;7.60;;;7.10;;
253;SDS011;590;48.772;8.846;2023-06-22T09:52:37;6.20;;;5.90;;
253;SDS011;590;48.772;8.846;2023-06-22T09:55:08;7.30;;;6.87;;
253;SDS011;590;48.772;8.846;2023-06-22T09:57:36;7.20;;;6.67;;
253;SDS011;590;48.772;8.846;2023-06-22T10:00:06;9.50;;;6.93;;
253;SDS011;590;48.772;8.846;2023-06-22T10:02:39;7.70;;;6.37;;
253;SDS011;590;48.772;8.846;2023-06-22T10:05:08;6.80;;;5.70;;
253;SDS011;590;48.772;8.846;2023-06-22T10:07:36;10.67;;;6.87;;
253;SDS011;590;48.772;8.846;2023-06-22T10:10:08;8.93;;;7.23;;
253;SDS011;590;48.772;8.846;2023-06-22T10:12:40;9.00;;;7.20;;
253;SDS011;590;48.772;8.846;2023-06-22T10:15:10;8.27;;;6.40;;
253;SDS011;590;48.772;8.846;2023-06-22T10:17:39;6.20;;;5.73;;
253;SDS011;590;48.772;8.846;2023-06-22T10:20:08;9.60;;;6.77;;
253;SDS011;590;48.772;8.846;2023-06-22T10:22:39;7.90;;;7.10;;
253;SDS011;590;48.772;8.846;2023-06-22T10:25:08;8.10;;;7.20;;
253;SDS011;590;48.772;8.846;2023-06-22T10:27:37;7.67;;;6.13;;
253;SDS011;590;48.772;8.846;2023-06-22T10:30:07;7.90;;;6.70;;
253;SDS011;590;48.772;8.846;2023-06-22T10:32:38;8.50;;;6.53;;
253;SDS011;590;48.772;8.846;2023-06-22T10:35:07;6.70;;;6.33;;
253;SDS011;590;48.772;8.846;2023-06-22T10:37:37;7.17;;;6.50;;
253;SDS011;590;48.772;8.846;2023-06-22T10:40:05;7.23;;;6.10;;
253;SDS011;590;48.772;8.846;2023-06-22T10:42:34;10.40;;;6.90;;
253;SDS011;590;48.772;8.846;2023-06-22T10:45:03;9.10;;;7.10;;
253;SDS011;590;48.772;8.846;2023-06-22T10:47:31;11.87;;;6.90;;
253;SDS011;590;48.772;8.846;2023-06-22T10:50:00;7.40;;;6.73;;
253;SDS011;590;48.772;8.846;2023-06-22T10:52:29;10.37;;;6.70;;
253;SDS011;590;48.772;8.846;2023-06-22T10:54:57;7.03;;;6.00;;
253;SDS011;590;48.772;8.846;2023-06-22T10:57:25;7.80;;;6.40;;
253;SDS011;590;48.772;8.846;2023-06-22T10:59:53;7.23;;;6.80;;
253;SDS011;590;48.772;8.846;2023-06-22T11:02:21;7.70;;;6.50;;
253;SDS011;590;48.772;8.846;2023-06-22T11:04:49;12.17;;;7.67;;
253;SDS011;590;48.772;8.846;2023-06-22T11:07:19;9.60;;;7.50;;
253;SDS011;590;48.772;8.846;2023-06-22T11:09:47;6.50;;;6.10;;
253;SDS011;590;48.772;8.846;2023-06-22T11:12:15;6.53;;;6.13;;
253;SDS011;590;48.772;8.846;2023-06-22T11:14:43;9.13;;;6.37;;
253;SDS011;590;48.772;8.846;2023-06-22T11:17:11;6.93;;;6.20;;
253;SDS011;590;48.772;8.846;2023-06-22T11:19:39;8.60;;;5.90;;
253;SDS011;590;48.772;8.846;2023-06-22T11:22:07;10.93;;;6.73;;
253;SDS011;590;48.772;8.846;2023-06-22T11:24:36;6.80;;;6.40;;
253;SDS011;590;48.772;8.846;2023-06-22T11:27:04;6.43;;;6.10;;
253;SDS011;590;48.772;8.846;2023-06-22T11:29:33;7.27;;;6.83;;
253;SDS011;590;48.772;8.846;2023-06-22T11:32:04;8.40;;;6.10;;
253;SDS011;590;48.772;8.846;2023-06-22T11:34:35;6.60;;;6.10;;
253;SDS011;590;48.772;8.846;2023-06-22T11:37:03;7.30;;;6.63;;
253;SDS011;590;48.772;8.846;2023-06-22T11:39:31;8.47;;;6.20;;
253;SDS011;590;48.772;8.846;2023-06-22T11:42:09;10.00;;;7.07;;
253;SDS011;590;48.772;8.846;2023-06-22T11:44:38;8.13;;;6.80;;
253;SDS011;590;48.772;8.846;2023-06-22T11:47:06;6.83;;;6.43;;
253;SDS011;590;48.772;8.846;2023-06-22T11:49:34;10.90;;;7.10;;
253;SDS011;590;48.772;8.846;2023-06-22T11:52:02;11.07;;;7.20;;
253;SDS011;590;48.772;8.846;2023-06-22T11:54:30;9.90;;;5.93;;
253;SDS011;590;48.772;8.846;2023-06-22T11:56:58;8.37;;;6.77;;
253;SDS011;590;48.772;8.846;2023-06-22T11:59:28;8.80;;;7.60;;
253;SDS011;590;48.772;8.846;2023-06-22T12:01:56;8.20;;;6.50;;
253;SDS011;590;48.772;8.846;2023-06-22T12:04:25;8.23;;;6.80;;
253;SDS011;590;48.772;8.846;2023-06-22T12:06:53;9.13;;;7.20;;
253;SDS011;590;48.772;8.846;2023-06-22T12:09:21;7.00;;;6.60;;
253;SDS011;590;48.772;8.846;2023-06-22T12:11:49;6.37;;;6.00;;
253;SDS011;590;48.772;8.846;2023-06-22T12:14:17;8.40;;;6.90;;
253;SDS011;590;48.772;8.846;2023-06-22T12:16:47;8.50;;;7.70;;
253;SDS011;590;48.772;8.846;2023-06-22T12:19:15;7.53;;;7.10;;
253;SDS011;590;48.772;8.846;2023-06-22T12:21:43;9.70;;;6.73;;
253;SDS011;590;48.772;8.846;2023-06-22T12:24:12;7.50;;;7.10;;
253;SDS011;590;48.772;8.846;2023-06-22T12:26:40;7.77;;;7.00;;
253;SDS011;590;48.772;8.846;2023-06-22T12:29:09;8.57;;;7.40;;
253;SDS011;590;48.772;8.846;2023-06-22T12:31:37;7.40;;;7.03;;
253;SDS011;590;48.772;8.846;2023-06-22T12:34:07;8.07;;;6.60;;
253;SDS011;590;48.772;8.846;2023-06-22T12:36:35;7.07;;;6.70;;
253;SDS011;590;48.772;8.846;2023-06-22T12:39:03;9.87;;;7.57;;
253;SDS011;590;48.772;8.846;2023-06-22T12:41:31;8.80;;;8.37;;
253;SDS011;590;48.772;8.846;2023-06-22T12:44:00;7.47;;;7.07;;
253;SDS011;590;48.772;8.846;2023-06-22T12:46:28;9.53;;;7.70;;
253;SDS011;590;48.772;8.846;2023-06-22T12:48:57;7.23;;;6.77;;
253;SDS011;590;48.772;8.846;2023-06-22T12:51:28;7.70;;;6.90;;
253;SDS011;590;48.772;8.846;2023-06-22T12:53:57;9.33;;;7.13;;
253;SDS011;590;48.772;8.846;2023-06-22T12:56:25;7.90;;;6.53;;
253;SDS011;590;48.772;8.846;2023-06-22T12:58:53;9.60;;;6.97;;
253;SDS011;590;48.772;8.846;2023-06-22T13:01:21;7.67;;;5.80;;
253;SDS011;590;48.772;8.846;2023-06-22T13:03:49;7.80;;;6.60;;
253;SDS011;590;48.772;8.846;2023-06-22T13:06:17;7.87;;;6.50;;
253;SDS011;590;48.772;8.846;2023-06-22T13:08:46;9.27;;;7.37;;
253;SDS011;590;48.772;8.846;2023-06-22T13:11:17;9.33;;;7.30;;
253;SDS011;590;48.772;8.846;2023-06-22T13:13:45;6.90;;;6.50;;
253;SDS011;590;48.772;8.846;2023-06-22T13:16:13;7.63;;;7.20;;
253;SDS011;590;48.772;8.846;2023-06-22T13:18:41;8.43;;;6.60;;
253;SDS011;590;48.772;8.846;2023-06-22T13:21:09;9.67;;;7.37;;
253;SDS011;590;48.772;8.846;2023-06-22T13:23:37;8.50;;;7.40;;
253;SDS011;590;48.772;8.846;2023-06-22T13:26:07;9.33;;;6.73;;
253;SDS011;590;48.772;8.846;2023-06-22T13:28:35;8.30;;;6.87;;
253;SDS011;590;48.772;8.846;2023-06-22T13:31:03;8.00;;;6.83;;
253;SDS011;590;48.772;8.846;2023-06-22T13:33:31;6.97;;;6.57;;
253;SDS011;590;48.772;8.846;2023-06-22T13:35:59;8.13;;;6.83;;
253;SDS011;590;48.772;8.846;2023-06-22T13:38:29;6.57;;;6.17;;
253;SDS011;590;48.772;8.846;2023-06-22T13:40:58;7.53;;;6.60;;
253;SDS011;590;48.772;8.846;2023-06-22T13:43:28;7.50;;;6.97;;
253;SDS011;590;48.772;8.846;2023-06-22T13:45:56;6.67;;;6.27;;
253;SDS011;590;48.772;8.846;2023-06-22T13:48:24;7.23;;;6.50;;
253;SDS011;590;48.772;8.846;2023-06-22T13:50:54;6.83;;;6.33;;
253;SDS011;590;48.772;8.846;2023-06-22T13:53:24;6.57;;;5.87;;
253;SDS011;590;48.772;8.846;2023-06-22T13:55:52;7.17;;;6.37;;
253;SDS011;590;48.772;8.846;2023-06-22T13:58:20;7.00;;;6.60;;
253;SDS011;590;48.772;8.846;2023-06-22T14:00:49;7.87;;;7.47;;
253;SDS011;590;48.772;8.846;2023-06-22T14:03:20;6.30;;;5.97;;
253;SDS011;590;48.772;8.846;2023-06-22T14:05:48;7.20;;;6.20;;
253;SDS011;590;48.772;8.846;2023-06-22T14:08:16;6.80;;;4.90;;
253;SDS011;590;48.772;8.846;2023-06-22T14:11:06;8.70;;;4.40;;
253;SDS011;590;48.772;8.846;2023-06-22T14:13:34;7.80;;;4.90;;
253;SDS011;590;48.772;8.846;2023-06-22T14:16:04;10.30;;;4.80;;
253;SDS011;590;48.772;8.846;2023-06-22T14:18:32;7.80;;;3.83;;
253;SDS011;590;48.772;8.846;2023-06-22T14:21:00;6.50;;;4.20;;
253;SDS011;590;48.772;8.846;2023-06-22T14:23:28;6.70;;;3.47;;
253;SDS011;590;48.772;8.846;2023-06-22T14:25:56;5.73;;;3.80;;
253;SDS011;590;48.772;8.846;2023-06-22T14:28:24;9.33;;;4.03;;
253;SDS011;590;48.772;8.846;2023-06-22T14:30:52;7.00;;;4.60;;
253;SDS011;590;48.772;8.846;2023-06-22T14:33:21;9.00;;;4.87;;
253;SDS011;590;48.772;8.846;2023-06-22T14:35:49;11.53;;;4.70;;
253;SDS011;590;48.772;8.846;2023-06-22T14:38:17;7.07;;;5.37;;
253;SDS011;590;48.772;8.846;2023-06-22T14:40:46;5.50;;;4.47;;
253;SDS011;590;48.772;8.846;2023-06-22T14:43:19;4.60;;;3.90;;
253;SDS011;590;48.772;8.846;2023-06-22T14:45:47;9.63;;;4.83;;
253;SDS011;590;48.772;8.846;2023-06-22T14:48:17;7.10;;;4.23;;
253;SDS011;590;48.772;8.846;2023-06-22T14:50:46;7.77;;;4.53;;
253;SDS011;590;48.772;8.846;2023-06-22T14:53:14;7.27;;;4.80;;
253;SDS011;590;48.772;8.846;2023-06-22T14:55:42;10.97;;;4.70;;
253;SDS011;590;48.772;8.846;2023-06-22T14:58:10;6.70;;;4.57;;
253;SDS011;590;48.772;8.846;2023-06-22T15:00:38;7.70;;;4.40;;
253;SDS011;590;48.772;8.846;2023-06-22T15:03:06;7.20;;;4.10;;
253;SDS011;590;48.772;8.846;2023-06-22T15:05:37;7.83;;;4.50;;
253;SDS011;590;48.772;8.846;2023-06-22T15:08:07;7.30;;;4.57;;
253;SDS011;590;48.772;8.846;2023-06-22T15:10:37;7.93;;;4.40;;
253;SDS011;590;48.772;8.846;2023-06-22T15:13:05;8.57;;;4.67;;
253;SDS011;590;48.772;8.846;2023-06-22T15:15:33;6.73;;;4.60;;
253;SDS011;590;48.772;8.846;2023-06-22T15:18:01;7.30;;;4.20;;
253;SDS011;590;48.772;8.846;2023-06-22T15:20:30;6.60;;;4.53;;
253;SDS011;590;48.772;8.846;2023-06-22T15:22:58;9.27;;;4.50;;
253;SDS011;590;48.772;8.846;2023-06-22T15:25:28;6.43;;;4.00;;
253;SDS011;590;48.772;8.846;2023-06-22T15:27:56;7.57;;;4.03;;
253;SDS011;590;48.772;8.846;2023-06-22T15:30:24;6.23;;;4.30;;
253;SDS011;590;48.772;8.846;2023-06-22T15:32:52;6.43;;;4.30;;
253;SDS011;590;48.772;8.846;2023-06-22T15:35:20;5.03;;;4.17;;
253;SDS011;590;48.772;8.846;2023-06-22T15:37:49;5.53;;;4.63;;
253;SDS011;590;48.772;8.846;2023-06-22T15:40:17;5.33;;;3.80;;
253;SDS011;590;48.772;8.846;2023-06-22T15:42:49;5.90;;;5.23;;
253;SDS011;590;48.772;8.846;2023-06-22T15:45:19;6.77;;;4.47;;
253;SDS011;590;48.772;8.846;2023-06-22T15:47:47;7.77;;;5.60;;